createdAt,value
2022-10-17T00:02:18.156Z,100.00
2022-10-17T00:05:20.329Z,100.00
2022-10-17T00:08:22.968Z,100.00
2022-10-17T00:11:27.102Z,100.00
2022-10-17T00:14:29.284Z,100.00
2022-10-17T00:17:31.712Z,100.00
2022-10-17T00:20:35.822Z,100.00
2022-10-17T00:23:37.953Z,100.00
2022-10-17T00:26:40.126Z,100.00
2022-10-17T00:29:42.335Z,100.00
2022-10-17T00:32:44.569Z,100.00
2022-10-17T00:35:46.756Z,100.00
2022-10-17T00:38:52.075Z,100.00
2022-10-17T00:41:54.251Z,100.00
2022-10-17T00:45:17.049Z,100.00
2022-10-17T00:48:22.578Z,100.00
2022-10-17T00:51:34.629Z,100.00
2022-10-17T00:54:43.297Z,100.00
2022-10-17T00:57:45.945Z,100.00
2022-10-17T01:00:48.466Z,100.00
2022-10-17T01:03:50.690Z,100.00
2022-10-17T01:06:52.847Z,100.00
2022-10-17T01:09:55.146Z,100.00
2022-10-17T01:13:06.486Z,100.00
2022-10-17T01:16:23.566Z,100.00
2022-10-17T01:19:59.995Z,100.00
2022-10-17T01:23:29.322Z,100.00
2022-10-17T01:26:41.631Z,100.00
2022-10-17T01:29:46.495Z,100.00
2022-10-17T01:32:57.918Z,100.00
2022-10-17T01:36:04.783Z,100.00
2022-10-17T01:39:13.237Z,100.00
2022-10-17T01:42:26.102Z,100.00
2022-10-17T01:45:40.937Z,100.00
2022-10-17T01:48:45.923Z,100.00
2022-10-17T01:51:59.009Z,100.00
2022-10-17T01:55:09.397Z,100.00
2022-10-17T01:58:23.304Z,100.00
2022-10-17T02:01:26.890Z,100.00
2022-10-17T02:04:29.328Z,100.00
2022-10-17T02:07:31.488Z,100.00
2022-10-17T02:10:41.648Z,100.00
2022-10-17T02:14:06.764Z,100.00
2022-10-17T02:17:39.940Z,100.00
2022-10-17T02:20:56.282Z,100.00
2022-10-17T02:24:06.839Z,100.00
2022-10-17T02:27:20.465Z,100.00
2022-10-17T02:30:34.464Z,100.00
2022-10-17T02:33:44.348Z,100.00
2022-10-17T02:36:51.924Z,100.00
2022-10-17T02:39:56.380Z,100.00
2022-10-17T02:43:00.969Z,100.00
2022-10-17T02:46:03.862Z,100.00
2022-10-17T02:49:24.794Z,100.00
2022-10-17T02:52:52.064Z,100.00
2022-10-17T02:55:58.105Z,100.00
2022-10-17T02:59:01.411Z,100.00
2022-10-17T03:02:05.203Z,100.00
2022-10-17T03:05:08.739Z,100.00
2022-10-17T03:08:11.807Z,100.00
2022-10-17T03:11:13.980Z,100.00
2022-10-17T03:14:16.070Z,100.00
2022-10-17T03:17:18.217Z,100.00
2022-10-17T03:20:20.356Z,100.00
2022-10-17T03:23:22.483Z,100.00
2022-10-17T03:26:24.727Z,100.00
2022-10-17T03:29:26.857Z,100.00
2022-10-17T03:32:29.010Z,100.00
2022-10-17T03:35:31.173Z,100.00
2022-10-17T03:38:34.529Z,100.00
2022-10-17T03:41:36.723Z,100.00
2022-10-17T03:44:38.859Z,100.00
2022-10-17T03:47:40.972Z,100.00
2022-10-17T03:50:43.094Z,100.00
2022-10-17T03:53:45.292Z,100.00
2022-10-17T03:56:47.488Z,100.00
2022-10-17T03:59:51.337Z,100.00
2022-10-17T04:02:53.836Z,100.00
2022-10-17T04:05:59.848Z,100.00
2022-10-17T04:09:02.692Z,100.00
2022-10-17T04:12:05.045Z,100.00
2022-10-17T04:15:07.730Z,100.00
2022-10-17T04:18:09.868Z,100.00
2022-10-17T04:21:12.462Z,100.00
2022-10-17T04:24:14.646Z,100.00
2022-10-17T04:27:16.865Z,100.00
2022-10-17T04:30:19.041Z,100.00
2022-10-17T04:33:21.159Z,100.00
2022-10-17T04:36:23.524Z,100.00
2022-10-17T04:39:25.850Z,100.00
2022-10-17T04:42:29.391Z,100.00
2022-10-17T04:45:31.737Z,100.00
2022-10-17T04:48:34.213Z,100.00
2022-10-17T04:51:36.435Z,100.00
2022-10-17T04:54:38.597Z,100.00
2022-10-17T04:57:40.782Z,100.00
2022-10-17T05:00:43.260Z,100.00
2022-10-17T05:03:46.200Z,100.00
2022-10-17T05:06:48.341Z,100.00
2022-10-17T05:09:50.535Z,100.00
2022-10-17T05:12:53.369Z,100.00
2022-10-17T05:15:59.859Z,100.00
2022-10-17T05:19:02.195Z,100.00
2022-10-17T05:22:04.331Z,100.00
2022-10-17T05:25:07.054Z,100.00
2022-10-17T05:28:09.274Z,100.00
2022-10-17T05:31:11.849Z,100.00
2022-10-17T05:34:14.154Z,100.00
2022-10-17T05:37:16.328Z,100.00
2022-10-17T05:40:18.462Z,100.00
2022-10-17T05:43:20.623Z,100.00
2022-10-17T05:46:22.827Z,100.00
2022-10-17T05:49:39.694Z,100.00
2022-10-17T05:52:47.165Z,100.00
2022-10-17T05:55:56.679Z,100.00
2022-10-17T05:59:01.032Z,100.00
2022-10-17T06:02:03.567Z,100.00
2022-10-17T06:05:06.037Z,100.00
2022-10-17T06:08:08.225Z,100.00
2022-10-17T06:11:11.541Z,100.00
2022-10-17T06:14:13.706Z,100.00
2022-10-17T06:17:16.491Z,100.00
2022-10-17T06:20:18.748Z,100.00
2022-10-17T06:23:20.973Z,100.00
2022-10-17T06:26:23.101Z,100.00
2022-10-17T06:29:25.304Z,100.00
2022-10-17T06:32:27.745Z,100.00
2022-10-17T06:35:30.186Z,100.00
2022-10-17T06:38:32.496Z,100.00
2022-10-17T06:41:34.668Z,100.00
2022-10-17T06:44:36.806Z,100.00
2022-10-17T06:47:39.248Z,100.00
2022-10-17T06:50:41.491Z,100.00
2022-10-17T06:53:43.724Z,100.00
2022-10-17T06:56:45.914Z,100.00
2022-10-17T06:59:48.131Z,100.00
2022-10-17T07:02:50.371Z,100.00
2022-10-17T07:05:53.747Z,100.00
2022-10-17T07:08:56.304Z,100.00
2022-10-17T07:11:59.078Z,100.00
2022-10-17T07:15:01.780Z,100.00
2022-10-17T07:18:04.752Z,100.00
2022-10-17T07:21:08.612Z,100.00
2022-10-17T07:24:10.730Z,100.00
2022-10-17T07:27:14.100Z,100.00
2022-10-17T07:30:16.917Z,100.00
2022-10-17T07:33:19.104Z,100.00
2022-10-17T07:36:21.425Z,100.00
2022-10-17T07:39:23.586Z,100.00
2022-10-17T07:42:25.957Z,100.00
2022-10-17T07:45:28.210Z,100.00
2022-10-17T07:48:30.539Z,100.00
2022-10-17T07:51:32.813Z,100.00
2022-10-17T07:54:35.003Z,100.00
2022-10-17T07:57:37.143Z,100.00
2022-10-17T08:00:39.917Z,100.00
2022-10-17T08:03:44.133Z,100.00
2022-10-17T08:06:46.291Z,100.00
2022-10-17T08:09:48.450Z,100.00
2022-10-17T08:12:50.585Z,100.00
2022-10-17T08:15:52.767Z,100.00
2022-10-17T08:18:55.052Z,100.00
2022-10-17T08:21:58.524Z,100.00
2022-10-17T08:25:00.748Z,100.00
2022-10-17T08:28:02.956Z,100.00
2022-10-17T08:31:08.032Z,100.00
2022-10-17T08:34:10.180Z,100.00
2022-10-17T08:37:15.354Z,100.00
2022-10-17T08:40:22.077Z,100.00
2022-10-17T08:43:35.360Z,100.00
2022-10-17T08:46:40.115Z,100.00
2022-10-17T08:49:46.939Z,100.00
2022-10-17T08:53:03.540Z,100.00
2022-10-17T08:56:19.551Z,100.00
2022-10-17T08:59:28.766Z,100.00
2022-10-17T09:02:52.782Z,100.00
2022-10-17T09:06:11.001Z,100.00
2022-10-17T09:09:13.051Z,100.00
2022-10-17T09:12:22.495Z,100.00
2022-10-17T09:15:47.633Z,100.00
2022-10-17T09:19:03.385Z,100.00
2022-10-17T09:22:25.427Z,100.00
2022-10-17T09:25:27.982Z,100.00
2022-10-17T09:28:39.602Z,100.00
2022-10-17T09:31:45.847Z,100.00
2022-10-17T09:34:48.054Z,100.00
2022-10-17T09:37:53.066Z,100.00
2022-10-17T09:40:59.156Z,100.00
2022-10-17T09:44:24.793Z,100.00
2022-10-17T09:47:35.197Z,100.00
2022-10-17T09:50:37.578Z,100.00
2022-10-17T09:53:42.482Z,100.00
2022-10-17T09:57:05.571Z,100.00
2022-10-17T10:00:08.280Z,100.00
2022-10-17T10:03:19.534Z,100.00
2022-10-17T10:06:21.928Z,100.00
2022-10-17T10:09:25.956Z,100.00
2022-10-17T10:12:37.094Z,100.00
2022-10-17T10:15:41.298Z,94.51
2022-10-17T10:18:45.416Z,94.06
2022-10-17T10:22:01.024Z,93.71
2022-10-17T10:25:13.896Z,95.74
2022-10-17T10:28:17.352Z,95.19
2022-10-17T10:31:35.950Z,92.40
2022-10-17T10:34:45.415Z,95.46
2022-10-17T10:37:51.075Z,96.50
2022-10-17T10:41:02.337Z,93.09
2022-10-17T10:44:06.480Z,91.06
2022-10-17T10:47:09.823Z,95.21
2022-10-17T10:50:27.166Z,94.09
2022-10-17T10:53:41.380Z,91.59
2022-10-17T10:56:49.845Z,89.51
2022-10-17T11:00:10.195Z,87.54
2022-10-17T11:03:24.412Z,90.74
2022-10-17T11:06:29.327Z,87.68
2022-10-17T11:09:53.585Z,86.30
2022-10-17T11:13:14.847Z,87.42
2022-10-17T11:16:22.110Z,90.88
2022-10-17T11:20:05.950Z,92.14
2022-10-17T11:23:20.792Z,87.48
2022-10-17T11:26:31.728Z,87.72
2022-10-17T11:29:35.813Z,90.04
2022-10-17T11:32:44.757Z,86.93
2022-10-17T11:35:49.808Z,95.37
2022-10-17T11:38:58.749Z,92.20
2022-10-17T11:42:07.081Z,92.33
2022-10-17T11:45:15.028Z,88.23
2022-10-17T11:48:21.795Z,86.81
2022-10-17T11:54:51.000Z,91.83
2022-10-17T11:57:53.117Z,89.60
2022-10-17T12:01:23.695Z,88.22
2022-10-17T12:04:54.744Z,94.48
2022-10-17T12:08:09.716Z,93.05
2022-10-17T12:11:54.170Z,86.78
2022-10-17T12:15:19.280Z,86.91
2022-10-17T12:18:25.383Z,87.67
2022-10-17T12:21:32.141Z,88.31
2022-10-17T12:24:41.476Z,91.19
2022-10-17T12:27:46.205Z,88.35
2022-10-17T12:30:53.629Z,85.16
2022-10-17T12:33:58.330Z,85.55
2022-10-17T12:37:00.473Z,82.65
2022-10-17T12:40:02.614Z,88.54
2022-10-17T12:43:13.699Z,86.43
2022-10-17T12:46:34.006Z,86.25
2022-10-17T12:49:49.686Z,89.33
2022-10-17T12:53:02.783Z,83.22
2022-10-17T12:56:05.684Z,83.47
2022-10-17T12:59:15.478Z,81.05
2022-10-17T13:02:21.253Z,83.17
2022-10-17T13:05:38.361Z,81.50
2022-10-17T13:08:44.428Z,87.28
2022-10-17T13:11:49.077Z,86.17
2022-10-17T13:14:53.297Z,81.72
2022-10-17T13:17:59.970Z,84.88
2022-10-17T13:21:05.970Z,82.40
2022-10-17T13:24:35.105Z,85.70
2022-10-17T13:27:37.799Z,82.91
2022-10-17T13:30:40.111Z,82.32
2022-10-17T13:33:42.417Z,85.06
2022-10-17T13:36:48.863Z,84.40
2022-10-17T13:40:07.083Z,81.25
2022-10-17T13:43:17.390Z,83.86
2022-10-17T13:46:44.126Z,79.45
2022-10-17T13:49:46.300Z,80.17
2022-10-17T13:52:48.517Z,83.15
2022-10-17T13:56:15.753Z,80.98
2022-10-17T13:59:26.049Z,76.41
2022-10-17T14:02:30.336Z,76.67
2022-10-17T14:05:32.989Z,74.98
2022-10-17T14:08:36.358Z,74.75
2022-10-17T14:11:43.334Z,71.01
2022-10-17T14:15:09.783Z,71.86
2022-10-17T14:18:25.451Z,72.53
2022-10-17T14:21:44.152Z,71.92
2022-10-17T14:24:47.404Z,70.76
2022-10-17T14:28:03.588Z,68.76
2022-10-17T14:31:29.609Z,67.86
2022-10-17T14:34:35.095Z,69.61
2022-10-17T14:37:40.191Z,69.16
2022-10-17T14:40:50.149Z,72.47
2022-10-17T14:44:13.437Z,71.86
2022-10-17T14:47:42.203Z,72.79
2022-10-17T14:54:22.249Z,75.98
2022-10-17T14:57:24.537Z,75.82
2022-10-17T15:00:26.982Z,76.14
2022-10-17T15:03:29.200Z,75.92
2022-10-17T15:06:34.431Z,74.68
2022-10-17T15:09:36.581Z,75.27
2022-10-17T15:12:43.640Z,76.42
2022-10-17T15:15:52.169Z,77.23
2022-10-17T15:18:54.755Z,77.21
2022-10-17T15:21:56.945Z,77.93
2022-10-17T15:24:59.148Z,79.07
2022-10-17T15:28:01.314Z,81.45
2022-10-17T15:31:03.458Z,82.06
2022-10-17T15:34:05.612Z,87.01
2022-10-17T15:37:16.179Z,93.58
2022-10-17T15:40:24.194Z,99.08
2022-10-17T15:43:26.434Z,100.00
2022-10-17T15:46:30.819Z,100.00
2022-10-17T15:49:34.660Z,100.00
2022-10-17T15:52:36.906Z,100.00
2022-10-17T15:55:39.115Z,100.00
2022-10-17T15:58:41.458Z,100.00
2022-10-17T16:01:44.075Z,100.00
2022-10-17T16:04:46.713Z,100.00
2022-10-17T16:07:49.398Z,100.00
2022-10-17T16:10:52.312Z,100.00
2022-10-17T16:13:56.509Z,100.00
2022-10-17T16:17:01.748Z,100.00
2022-10-17T16:20:04.056Z,100.00
2022-10-17T16:23:07.727Z,100.00
2022-10-17T16:26:10.203Z,100.00
2022-10-17T16:29:12.471Z,100.00
2022-10-17T16:32:14.695Z,100.00
2022-10-17T16:35:20.080Z,100.00
2022-10-17T16:38:22.229Z,100.00
2022-10-17T16:41:30.772Z,100.00
2022-10-17T16:44:32.994Z,100.00
2022-10-17T16:47:35.157Z,100.00
2022-10-17T16:50:39.548Z,100.00
2022-10-17T16:53:45.337Z,100.00
2022-10-17T16:56:47.682Z,100.00
2022-10-17T16:59:50.380Z,100.00
2022-10-17T17:02:52.602Z,100.00
2022-10-17T17:05:54.792Z,100.00
2022-10-17T17:08:57.513Z,100.00
2022-10-17T17:11:59.685Z,100.00
2022-10-17T17:15:02.341Z,100.00
2022-10-17T17:18:05.872Z,100.00
2022-10-17T17:21:09.811Z,100.00
2022-10-17T17:24:11.964Z,100.00
2022-10-17T17:27:14.289Z,100.00
2022-10-17T17:30:16.853Z,100.00
2022-10-17T17:33:19.039Z,100.00
2022-10-17T17:36:32.497Z,100.00
2022-10-17T17:39:34.798Z,100.00
2022-10-17T17:42:36.955Z,100.00
2022-10-17T17:45:39.102Z,100.00
2022-10-17T17:48:41.918Z,100.00
2022-10-17T17:51:46.548Z,100.00
2022-10-17T17:54:48.894Z,100.00
2022-10-17T17:57:51.047Z,100.00
2022-10-17T18:00:53.312Z,100.00
2022-10-17T18:03:58.935Z,100.00
2022-10-17T18:07:01.145Z,100.00
2022-10-17T18:10:04.895Z,100.00
2022-10-17T18:13:07.110Z,100.00
2022-10-17T18:16:13.341Z,100.00
2022-10-17T18:19:15.559Z,100.00
2022-10-17T18:22:18.105Z,100.00
2022-10-17T18:25:21.596Z,100.00
2022-10-17T18:28:24.737Z,100.00
2022-10-17T18:31:35.310Z,100.00
2022-10-17T18:34:37.676Z,100.00
2022-10-17T18:40:49.962Z,100.00
2022-10-17T18:43:54.521Z,100.00
2022-10-17T18:46:59.864Z,100.00
2022-10-17T18:50:05.613Z,100.00
2022-10-17T18:53:07.805Z,100.00
2022-10-17T18:56:10.786Z,100.00
2022-10-17T18:59:13.013Z,100.00
2022-10-17T19:02:15.229Z,100.00
2022-10-17T19:05:17.500Z,100.00
2022-10-17T19:08:19.644Z,100.00
2022-10-17T19:11:24.663Z,100.00
2022-10-17T19:14:28.631Z,100.00
2022-10-17T19:17:31.012Z,100.00
2022-10-17T19:20:33.517Z,100.00
2022-10-17T19:23:36.204Z,100.00
2022-10-17T19:26:39.714Z,100.00
2022-10-17T19:29:43.979Z,100.00
2022-10-17T19:32:47.617Z,100.00
2022-10-17T19:36:07.890Z,100.00
2022-10-17T19:39:15.878Z,100.00
2022-10-17T19:42:18.023Z,100.00
2022-10-17T19:45:20.164Z,100.00
2022-10-17T19:48:22.754Z,100.00
2022-10-17T19:51:25.726Z,100.00
2022-10-17T19:54:27.932Z,100.00
2022-10-17T19:57:30.155Z,100.00
2022-10-17T20:00:32.381Z,100.00
2022-10-17T20:03:34.535Z,100.00
2022-10-17T20:06:37.134Z,100.00
2022-10-17T20:09:39.307Z,100.00
2022-10-17T20:12:41.486Z,100.00
2022-10-17T20:15:53.950Z,100.00
2022-10-17T20:18:58.166Z,100.00
2022-10-17T20:22:00.320Z,100.00
2022-10-17T20:25:02.453Z,100.00
2022-10-17T20:28:05.387Z,100.00
2022-10-17T20:31:09.210Z,100.00
2022-10-17T20:34:15.523Z,100.00
2022-10-17T20:37:17.659Z,100.00
2022-10-17T20:40:35.845Z,100.00
2022-10-17T20:43:38.628Z,100.00
2022-10-17T20:46:45.365Z,100.00
2022-10-17T20:49:59.769Z,100.00
2022-10-17T20:53:31.422Z,100.00
2022-10-17T20:56:27.302Z,100.00
2022-10-17T20:59:29.887Z,100.00
2022-10-17T21:02:32.551Z,100.00
2022-10-17T21:05:39.703Z,100.00
2022-10-17T21:08:42.068Z,100.00
2022-10-17T21:11:44.419Z,100.00
2022-10-17T21:14:46.840Z,100.00
2022-10-17T21:17:48.980Z,100.00
2022-10-17T21:20:51.113Z,100.00
2022-10-17T21:23:55.108Z,100.00
2022-10-17T21:26:57.606Z,100.00
2022-10-17T21:29:59.789Z,100.00
2022-10-17T21:33:01.929Z,100.00
2022-10-17T21:36:04.700Z,100.00
2022-10-17T21:42:14.475Z,100.00
2022-10-17T21:45:25.427Z,100.00
2022-10-17T21:48:28.256Z,100.00
2022-10-17T21:51:30.410Z,100.00
2022-10-17T21:54:32.987Z,100.00
2022-10-17T21:57:35.138Z,100.00
2022-10-17T22:00:37.278Z,100.00
2022-10-17T22:03:45.769Z,100.00
2022-10-17T22:06:53.271Z,100.00
2022-10-17T22:09:55.404Z,100.00
2022-10-17T22:12:57.601Z,100.00
2022-10-17T22:16:04.893Z,100.00
2022-10-17T22:19:07.965Z,100.00
2022-10-17T22:22:10.105Z,100.00
2022-10-17T22:25:12.237Z,100.00
2022-10-17T22:28:14.382Z,100.00
2022-10-17T22:31:16.725Z,100.00
2022-10-17T22:34:19.148Z,100.00
2022-10-17T22:37:21.289Z,100.00
2022-10-17T22:40:23.463Z,100.00
2022-10-17T22:43:25.725Z,100.00
2022-10-17T22:46:28.258Z,100.00
2022-10-17T22:49:30.412Z,100.00
2022-10-17T22:52:32.852Z,100.00
2022-10-17T22:55:35.152Z,100.00
2022-10-17T22:58:37.985Z,100.00
2022-10-17T23:01:40.174Z,100.00
2022-10-17T23:04:42.486Z,100.00
2022-10-17T23:07:44.673Z,100.00
2022-10-17T23:10:47.719Z,100.00
2022-10-17T23:13:49.893Z,100.00
2022-10-17T23:16:52.058Z,100.00
2022-10-17T23:19:56.965Z,100.00
2022-10-17T23:22:59.989Z,100.00
2022-10-17T23:26:06.524Z,100.00
2022-10-17T23:29:08.783Z,100.00
2022-10-17T23:32:10.979Z,100.00
2022-10-17T23:35:13.151Z,100.00
2022-10-17T23:38:15.279Z,100.00
2022-10-17T23:41:17.508Z,100.00
2022-10-17T23:44:19.775Z,100.00
2022-10-17T23:47:22.078Z,100.00
2022-10-17T23:50:24.296Z,100.00
2022-10-17T23:53:26.473Z,100.00
2022-10-17T23:56:28.647Z,100.00
2022-10-17T23:59:30.834Z,100.00
